Time;durP1;ratioP1;P1;durP2;ratioP2;P2;SDS_P1;SDS_P2;PMS_P1;PMS_P2;Temp;Humidity;BMP_temperature;BMP_pressure;BME280_temperature;BME280_humidity;BME280_pressure;Samples;Min_cycle;Max_cycle;Signal;HPM_P1;HPM_P2
2023/04/24 00:00:12;;;;;;;11.70;8.43;;;;;;;8.05;100.00;100124.36;1697151;84;21644;-80
2023/04/24 00:03:13;;;;;;;14.05;7.60;;;;;;;8.17;100.00;100125.75;1697139;84;21223;-89
2023/04/24 00:06:19;;;;;;;14.83;8.60;;;;;;;8.04;100.00;100132.16;1702018;83;21151;-87
2023/04/24 00:09:25;;;;;;;12.50;8.35;;;;;;;7.95;100.00;100123.10;1701532;81;21163;-80
2023/04/24 00:12:31;;;;;;;13.13;8.08;;;;;;;7.91;100.00;100126.69;1690028;84;21689;-81
2023/04/24 00:15:36;;;;;;;16.35;8.68;;;;;;;7.85;100.00;100121.02;1713446;83;21174;-89
2023/04/24 00:18:41;;;;;;;14.25;9.20;;;;;;;7.84;100.00;100128.34;1693304;84;21183;-90
2023/04/24 00:21:53;;;;;;;16.25;9.45;;;;;;;7.83;100.00;100133.45;1700936;83;21215;-90
2023/04/24 00:24:56;;;;;;;17.48;8.70;;;;;;;7.79;100.00;100129.85;1670413;86;21223;-88
2023/04/24 00:28:02;;;;;;;18.75;8.28;;;;;;;7.77;100.00;100131.90;1697942;84;21159;-80
2023/04/24 00:31:08;;;;;;;19.50;9.65;;;;;;;7.67;100.00;100132.88;1715012;83;21217;-80
2023/04/24 00:34:14;;;;;;;14.30;8.90;;;;;;;7.67;100.00;100129.30;1697671;84;21243;-90
2023/04/24 00:37:19;;;;;;;21.40;9.40;;;;;;;7.68;100.00;100127.77;1665725;86;21732;-90
2023/04/24 00:40:25;;;;;;;13.72;9.70;;;;;;;7.66;100.00;100124.33;1695212;84;21208;-80
2023/04/24 00:43:38;;;;;;;21.80;9.10;;;;;;;7.73;100.00;100121.83;1673013;85;21748;-79
2023/04/24 00:46:44;;;;;;;14.00;8.58;;;;;;;7.79;100.00;100118.96;1674206;85;21271;-89
2023/04/24 00:49:50;;;;;;;15.53;8.55;;;;;;;7.91;100.00;100119.88;1670201;86;21179;-90
2023/04/24 00:52:56;;;;;;;15.48;7.80;;;;;;;7.99;100.00;100122.28;1694998;84;21239;-80
2023/04/24 00:56:03;;;;;;;19.52;7.10;;;;;;;8.04;100.00;100118.03;1712027;83;21237;-85
2023/04/24 00:59:09;;;;;;;13.75;7.70;;;;;;;8.11;100.00;100116.38;1699243;84;21219;-80
2023/04/24 01:02:16;;;;;;;13.18;8.10;;;;;;;8.12;100.00;100120.80;1669733;86;21247;-88
2023/04/24 01:05:22;;;;;;;14.68;7.35;;;;;;;8.15;100.00;100117.75;1666240;86;21754;-82
2023/04/24 01:08:27;;;;;;;13.65;7.97;;;;;;;8.18;100.00;100120.12;1686009;84;21729;-80
2023/04/24 01:11:33;;;;;;;16.73;8.50;;;;;;;8.20;100.00;100132.24;1686371;84;21191;-89
2023/04/24 01:14:40;;;;;;;18.57;8.63;;;;;;;8.17;100.00;100129.33;1682779;84;21207;-79
2023/04/24 01:17:46;;;;;;;18.87;8.23;;;;;;;8.17;100.00;100126.59;1684757;84;21798;-88
2023/04/24 01:20:52;;;;;;;22.90;10.32;;;;;;;8.18;100.00;100132.38;1667526;86;21688;-79
2023/04/24 01:23:58;;;;;;;16.75;10.30;;;;;;;8.09;100.00;100128.44;1649913;86;21196;-79
2023/04/24 01:26:58;;;;;;;21.75;9.93;;;;;;;8.08;100.00;100135.76;1666329;86;21193;-88
2023/04/24 01:30:04;;;;;;;14.78;8.65;;;;;;;8.09;100.00;100129.80;1651253;86;21228;-83
2023/04/24 01:33:10;;;;;;;12.60;9.25;;;;;;;8.06;100.00;100124.70;1666303;86;21178;-79
2023/04/24 01:36:17;;;;;;;11.43;8.08;;;;;;;8.02;100.00;100127.41;1651065;86;21204;-88
2023/04/24 01:39:25;;;;;;;16.20;8.78;;;;;;;7.98;100.00;100120.06;1667663;86;21182;-79
2023/04/24 01:42:30;;;;;;;15.35;7.70;;;;;;;7.99;100.00;100119.04;1625320;87;21202;-79
2023/04/24 01:45:36;;;;;;;15.75;8.80;;;;;;;8.05;100.00;100118.91;1632940;87;21809;-79
2023/04/24 01:48:43;;;;;;;15.60;8.73;;;;;;;8.04;100.00;100115.31;1667589;86;21182;-90
2023/04/24 01:51:49;;;;;;;17.12;9.00;;;;;;;8.13;100.00;100126.58;1650080;86;21197;-90
2023/04/24 01:54:55;;;;;;;16.02;9.38;;;;;;;8.16;100.00;100126.27;1647709;86;21798;-89
2023/04/24 01:58:02;;;;;;;15.63;9.33;;;;;;;8.21;100.00;100112.14;1646488;86;21509;-90
2023/04/24 02:01:09;;;;;;;26.42;12.88;;;;;;;8.27;100.00;100111.47;1654386;86;21172;-81
2023/04/24 02:04:16;;;;;;;29.07;13.25;;;;;;;8.36;100.00;100109.14;1637869;87;21747;-80
2023/04/24 02:07:22;;;;;;;31.05;14.20;;;;;;;8.32;100.00;100112.34;1650764;86;21200;-89
2023/04/24 02:10:27;;;;;;;39.25;15.50;;;;;;;8.41;100.00;100113.58;1666993;86;21249;-85
2023/04/24 02:13:32;;;;;;;48.20;18.90;;;;;;;8.49;100.00;100107.81;1634786;87;21193;-81
2023/04/24 02:16:37;;;;;;;57.55;22.40;;;;;;;8.57;100.00;100110.56;1636731;87;21293;-80
2023/04/24 02:19:43;;;;;;;69.05;25.02;;;;;;;8.60;100.00;100108.33;1649056;85;21271;-88
2023/04/24 02:22:49;;;;;;;80.87;28.67;;;;;;;8.73;100.00;100106.98;1678083;85;21225;-90
2023/04/24 02:25:55;;;;;;;69.72;25.65;;;;;;;8.77;100.00;100111.94;1665010;85;21240;-89
2023/04/24 02:29:01;;;;;;;67.58;24.02;;;;;;;8.83;100.00;100111.25;1662143;85;21173;-81
2023/04/24 02:32:11;;;;;;;78.33;24.45;;;;;;;8.84;100.00;100114.31;1660493;85;21241;-80
2023/04/24 02:35:16;;;;;;;63.70;24.90;;;;;;;8.76;100.00;100109.39;1660389;85;21211;-89
2023/04/24 02:38:14;;;;;;;82.70;29.25;;;;;;;8.88;100.00;100111.59;1697841;84;21219;-80
2023/04/24 02:41:07;;;;;;;87.53;30.20;;;;;;;8.85;100.00;100110.59;1686847;84;21203;-89
2023/04/24 02:44:12;;;;;;;89.40;28.83;;;;;;;8.92;100.00;100112.95;1653498;86;21179;-89
2023/04/24 02:47:17;;;;;;;86.78;28.12;;;;;;;8.89;100.00;100109.71;1679228;85;21253;-89
2023/04/24 02:50:23;;;;;;;77.62;27.98;;;;;;;8.98;100.00;100107.33;1678864;85;21172;-80
2023/04/24 02:53:30;;;;;;;63.45;25.82;;;;;;;9.08;100.00;100113.48;1695240;84;21247;-89
2023/04/24 02:56:36;;;;;;;65.57;24.40;;;;;;;9.09;100.00;100109.73;1686442;84;21231;-80
2023/04/24 02:59:42;;;;;;;84.70;27.52;;;;;;;9.11;100.00;100114.48;1657157;86;21207;-80
2023/04/24 03:02:49;;;;;;;68.33;26.12;;;;;;;9.16;100.00;100120.80;1642297;87;21194;-89
2023/04/24 03:05:56;;;;;;;78.72;24.18;;;;;;;9.19;100.00;100119.09;1653389;86;21243;-89
2023/04/24 03:09:03;;;;;;;79.10;26.62;;;;;;;9.25;100.00;100112.94;1679743;85;21555;-80
2023/04/24 03:12:09;;;;;;;74.07;26.93;;;;;;;9.26;100.00;100116.00;1695395;84;21211;-89
2023/04/24 03:15:15;;;;;;;70.92;26.97;;;;;;;9.27;100.00;100125.92;1683145;84;21248;-89
2023/04/24 03:18:20;;;;;;;68.15;26.17;;;;;;;9.34;100.00;100126.92;1681140;84;21207;-80
2023/04/24 03:21:27;;;;;;;66.10;25.12;;;;;;;9.40;99.83;100124.00;1661810;84;21207;-80
2023/04/24 03:24:34;;;;;;;55.03;24.45;;;;;;;9.47;99.67;100127.76;1670604;85;21167;-89
2023/04/24 03:27:41;;;;;;;68.30;23.83;;;;;;;9.57;99.39;100128.93;1676421;84;21160;-87
2023/04/24 03:30:57;;;;;;;54.70;24.90;;;;;;;9.67;99.01;100134.53;1676272;85;21703;-80
2023/04/24 03:34:03;;;;;;;49.15;20.90;;;;;;;9.78;98.48;100133.81;1674206;85;21215;-79
2023/04/24 03:37:09;;;;;;;41.98;19.70;;;;;;;9.88;97.95;100136.70;1698797;84;21800;-90
2023/04/24 03:40:17;;;;;;;45.25;20.08;;;;;;;9.97;97.50;100141.59;1669093;86;21187;-80
2023/04/24 03:43:23;;;;;;;44.83;19.48;;;;;;;10.05;97.00;100137.47;1669173;86;21194;-80
2023/04/24 03:46:29;;;;;;;44.15;18.87;;;;;;;10.12;96.54;100137.12;1690860;85;21176;-88
2023/04/24 03:49:35;;;;;;;44.90;19.15;;;;;;;10.14;96.02;100138.30;1694278;84;21215;-85
2023/04/24 03:52:41;;;;;;;45.23;19.95;;;;;;;10.23;95.18;100143.55;1673452;85;21171;-80
2023/04/24 03:55:49;;;;;;;43.58;18.35;;;;;;;10.34;94.33;100144.20;1713116;83;21196;-87
2023/04/24 03:58:56;;;;;;;40.50;17.90;;;;;;;10.41;93.91;100145.20;1714517;83;21174;-89
2023/04/24 04:02:02;;;;;;;37.23;17.07;;;;;;;10.46;93.38;100145.00;1714303;83;21172;-90
2023/04/24 04:05:07;;;;;;;29.80;14.10;;;;;;;10.49;93.16;100139.67;1714903;83;21735;-89
2023/04/24 04:08:13;;;;;;;29.75;13.55;;;;;;;10.59;92.74;100142.20;1706395;83;21771;-80
2023/04/24 04:11:19;;;;;;;27.20;12.68;;;;;;;10.60;92.62;100146.11;1714651;83;21165;-88
2023/04/24 04:14:25;;;;;;;23.45;11.18;;;;;;;10.57;92.90;100143.73;1714873;83;21204;-83
2023/04/24 04:17:31;;;;;;;26.52;10.95;;;;;;;10.66;92.86;100146.75;1713777;83;21193;-88
2023/04/24 04:20:38;;;;;;;20.57;10.90;;;;;;;10.72;92.33;100142.43;1714846;83;21149;-86
2023/04/24 04:23:43;;;;;;;18.82;10.43;;;;;;;10.80;91.92;100138.28;1708858;82;21172;-90
2023/04/24 04:26:52;;;;;;;22.00;10.65;;;;;;;10.91;91.26;100143.31;1691791;85;21739;-81
2023/04/24 04:30:04;;;;;;;18.52;10.75;;;;;;;10.92;90.71;100146.41;1692923;85;21164;-89
2023/04/24 04:33:14;;;;;;;20.10;11.10;;;;;;;10.89;90.79;100139.08;1673370;85;21167;-89
2023/04/24 04:36:19;;;;;;;21.17;11.15;;;;;;;10.95;90.58;100136.97;1670497;85;21167;-80
2023/04/24 04:39:32;;;;;;;25.32;11.95;;;;;;;11.04;90.29;100143.23;1672866;85;21160;-82
2023/04/24 04:42:40;;;;;;;16.27;10.75;;;;;;;11.16;90.24;100136.30;1670309;85;21231;-88
2023/04/24 04:45:45;;;;;;;28.42;12.33;;;;;;;11.25;90.38;100139.30;1673545;85;21211;-89
2023/04/24 04:49:02;;;;;;;21.45;12.37;;;;;;;11.32;90.02;100137.51;1692958;84;21754;-88
2023/04/24 04:52:09;;;;;;;20.82;12.20;;;;;;;11.40;90.08;100137.44;1693001;85;21236;-81
2023/04/24 04:55:18;;;;;;;30.30;13.75;;;;;;;11.51;89.96;100130.65;1671226;85;21290;-89
2023/04/24 04:58:30;;;;;;;28.65;15.00;;;;;;;11.62;89.26;100130.70;1670099;85;21172;-88
2023/04/24 05:01:36;;;;;;;28.50;15.23;;;;;;;11.74;88.15;100137.43;1670262;85;21219;-88
2023/04/24 05:04:40;;;;;;;35.43;17.20;;;;;;;11.79;87.71;100139.09;1672543;85;21215;-81
2023/04/24 05:07:48;;;;;;;29.57;15.00;;;;;;;11.89;86.61;100138.83;1672978;85;21196;-81
2023/04/24 05:10:53;;;;;;;29.85;14.25;;;;;;;12.00;86.30;100133.75;1692704;83;21203;-88
2023/04/24 05:13:58;;;;;;;27.37;12.18;;;;;;;12.27;85.65;100145.05;1674164;85;21153;-81
2023/04/24 05:17:04;;;;;;;24.05;11.50;;;;;;;12.45;84.02;100139.16;1687583;82;21225;-81
2023/04/24 05:20:10;;;;;;;16.70;10.23;;;;;;;12.59;83.04;100149.77;1675925;84;21165;-88
2023/04/24 05:23:16;;;;;;;24.35;10.68;;;;;;;12.75;82.13;100144.02;1677416;83;21161;-88
2023/04/24 05:26:22;;;;;;;23.42;9.43;;;;;;;12.88;81.69;100146.07;1671833;84;21224;-87
2023/04/24 05:29:30;;;;;;;13.75;8.83;;;;;;;13.02;80.77;100141.04;1656238;84;21181;-88
2023/04/24 05:32:36;;;;;;;21.62;8.78;;;;;;;13.11;78.90;100146.72;1712317;82;21782;-87
2023/04/24 05:35:46;;;;;;;16.90;8.28;;;;;;;13.18;78.74;100142.69;1713140;82;21188;-87
2023/04/24 05:38:51;;;;;;;17.97;9.27;;;;;;;13.26;77.63;100139.28;1668934;84;21962;-87
2023/04/24 05:41:58;;;;;;;23.38;9.35;;;;;;;13.34;76.88;100131.97;1664187;85;21805;-82
2023/04/24 05:45:04;;;;;;;15.32;7.90;;;;;;;13.45;77.02;100137.75;1698208;83;21716;-80
2023/04/24 05:48:12;;;;;;;17.65;8.73;;;;;;;13.57;75.65;100131.73;1696095;83;21206;-81
2023/04/24 05:51:18;;;;;;;14.18;7.40;;;;;;;13.61;75.62;100131.13;1693301;83;21180;-81
2023/04/24 05:54:17;;;;;;;14.53;6.67;;;;;;;13.80;75.36;100132.31;1672143;83;21722;-81
2023/04/24 05:57:22;;;;;;;11.05;6.33;;;;;;;13.80;73.75;100130.94;1712475;83;21215;-81
2023/04/24 06:00:28;;;;;;;14.10;6.40;;;;;;;13.99;72.58;100137.08;1702375;83;21699;-81
2023/04/24 06:03:33;;;;;;;30.30;6.92;;;;;;;13.93;71.69;100136.52;1674748;84;21664;-81
2023/04/24 06:06:40;;;;;;;14.38;5.78;;;;;;;13.97;71.31;100133.70;1698915;83;21247;-81
2023/04/24 06:09:45;;;;;;;13.05;6.08;;;;;;;13.91;70.61;100133.11;1670931;84;21140;-88
2023/04/24 06:12:51;;;;;;;19.20;6.58;;;;;;;13.89;69.17;100129.73;1700605;83;21215;-88
2023/04/24 06:15:58;;;;;;;11.85;5.65;;;;;;;13.96;69.16;100130.59;1667827;84;21216;-81
2023/04/24 06:19:06;;;;;;;19.60;5.95;;;;;;;13.95;68.60;100136.31;1696750;83;21193;-89
2023/04/24 06:22:12;;;;;;;10.82;5.92;;;;;;;14.05;68.20;100141.76;1716003;82;21742;-88
2023/04/24 06:25:19;;;;;;;17.23;6.42;;;;;;;14.06;69.16;100142.08;1716456;82;21172;-87
2023/04/24 06:28:23;;;;;;;13.35;6.35;;;;;;;14.05;70.26;100140.38;1663867;84;21773;-88
2023/04/24 06:31:29;;;;;;;13.58;6.05;;;;;;;14.13;69.70;100142.13;1666268;86;21152;-88
2023/04/24 06:34:34;;;;;;;9.65;5.20;;;;;;;14.20;69.20;100146.28;1636986;86;21203;-88
2023/04/24 06:37:40;;;;;;;11.40;5.12;;;;;;;14.22;67.14;100148.31;1666130;84;21207;-88
2023/04/24 06:40:45;;;;;;;14.10;6.08;;;;;;;14.23;66.48;100148.63;1663139;84;21183;-88
2023/04/24 06:43:50;;;;;;;9.55;5.70;;;;;;;14.28;66.95;100143.36;1672796;84;21556;-81
2023/04/24 06:46:55;;;;;;;11.43;5.60;;;;;;;14.43;67.51;100139.92;1640363;86;21601;-87
2023/04/24 06:50:01;;;;;;;12.93;5.70;;;;;;;14.74;66.27;100139.44;1677550;83;21589;-88
2023/04/24 06:53:06;;;;;;;9.43;5.03;;;;;;;14.97;65.39;100134.94;1665015;85;21857;-86
2023/04/24 06:56:10;;;;;;;8.05;5.05;;;;;;;15.33;65.12;100133.69;1645549;85;21760;-81
2023/04/24 06:59:16;;;;;;;11.80;5.15;;;;;;;15.75;63.57;100135.72;1680988;83;21172;-87
2023/04/24 07:02:21;;;;;;;10.63;4.40;;;;;;;16.16;60.60;100136.80;1679601;83;21215;-87
2023/04/24 07:05:28;;;;;;;10.20;5.12;;;;;;;16.58;59.33;100128.98;1682587;84;21221;-82
2023/04/24 07:08:28;;;;;;;10.72;5.10;;;;;;;16.92;58.41;100123.62;1682354;83;21169;-87
2023/04/24 07:11:33;;;;;;;12.43;4.72;;;;;;;17.13;58.11;100123.81;1681819;83;21168;-82
2023/04/24 07:14:39;;;;;;;11.95;4.10;;;;;;;17.29;56.04;100120.48;1679363;83;21176;-86
2023/04/24 07:17:45;;;;;;;11.10;4.28;;;;;;;17.41;57.67;100119.73;1683975;83;21192;-88
2023/04/24 07:20:53;;;;;;;6.70;4.22;;;;;;;17.58;56.81;100114.80;1678489;83;21175;-86
2023/04/24 07:23:59;;;;;;;17.40;4.83;;;;;;;17.59;55.80;100113.72;1680391;85;21203;-83
2023/04/24 07:27:05;;;;;;;12.43;4.45;;;;;;;17.66;55.36;100104.00;1690689;82;21185;-82
2023/04/24 07:30:11;;;;;;;11.45;4.53;;;;;;;17.79;53.73;100108.59;1718539;82;21153;-82
2023/04/24 07:33:17;;;;;;;9.75;4.53;;;;;;;17.86;53.31;100103.83;1724261;82;21215;-87
2023/04/24 07:36:21;;;;;;;13.32;5.08;;;;;;;17.84;52.87;100108.21;1719883;82;21169;-88
2023/04/24 07:39:29;;;;;;;8.15;4.12;;;;;;;17.72;51.94;100101.70;1722300;82;21167;-87
2023/04/24 07:42:36;;;;;;;12.05;4.17;;;;;;;17.61;52.03;100097.77;1722097;82;21243;-88
2023/04/24 07:45:43;;;;;;;8.03;3.80;;;;;;;17.53;52.34;100093.06;1689150;84;21171;-88
2023/04/24 07:48:48;;;;;;;14.50;4.33;;;;;;;17.51;52.25;100091.91;1666381;84;21187;-88
2023/04/24 07:51:47;;;;;;;;;;;;;;;17.52;52.22;100094.14;1698022;83;21805;-88
2023/04/24 07:55:01;;;;;;;11.15;3.10;;;;;;;17.51;51.21;100087.77;1712525;82;20614;-88
2023/04/24 07:58:03;;;;;;;12.47;3.92;;;;;;;17.48;51.93;100085.98;1717960;82;21741;-88
2023/04/24 08:01:09;;;;;;;9.50;3.95;;;;;;;17.53;53.21;100092.52;1717216;82;21187;-88
2023/04/24 08:04:17;;;;;;;7.75;3.60;;;;;;;17.53;53.60;100087.53;1720153;82;21772;-81
2023/04/24 08:07:24;;;;;;;8.98;3.72;;;;;;;17.37;54.32;100088.96;1665447;84;21207;-81
2023/04/24 08:10:31;;;;;;;14.18;3.72;;;;;;;17.32;54.31;100087.41;1693837;83;21251;-81
2023/04/24 08:13:36;;;;;;;10.65;3.58;;;;;;;17.25;54.73;100085.22;1666242;84;21757;-87
2023/04/24 08:16:42;;;;;;;13.22;3.70;;;;;;;17.25;54.71;100085.22;1666795;84;21773;-88
2023/04/24 08:19:50;;;;;;;11.70;3.40;;;;;;;17.22;54.30;100087.05;1663116;84;21823;-88
2023/04/24 08:22:57;;;;;;;7.97;3.70;;;;;;;17.18;55.08;100085.29;1688266;83;21180;-81
2023/04/24 08:26:03;;;;;;;13.62;3.75;;;;;;;17.20;55.07;100085.90;1672955;84;21183;-81
2023/04/24 08:29:08;;;;;;;7.35;3.52;;;;;;;17.20;55.20;100080.38;1706336;82;22082;-88
2023/04/24 08:32:14;;;;;;;11.22;3.05;;;;;;;17.20;55.20;100079.53;1706096;83;21218;-88
2023/04/24 08:35:20;;;;;;;13.48;3.47;;;;;;;17.22;54.59;100076.86;1664253;84;21179;-82
2023/04/24 08:38:26;;;;;;;11.10;3.00;;;;;;;17.24;53.74;100084.92;1690094;83;21195;-88
2023/04/24 08:41:31;;;;;;;18.92;3.27;;;;;;;17.32;52.91;100074.97;1688885;84;21244;-88
2023/04/24 08:44:37;;;;;;;9.03;2.42;;;;;;;17.46;53.82;100071.02;1688757;84;21168;-88
2023/04/24 08:47:43;;;;;;;9.90;3.52;;;;;;;17.58;53.62;100060.87;1690656;83;21735;-81
2023/04/24 08:50:49;;;;;;;15.63;3.65;;;;;;;17.60;52.59;100062.89;1669842;83;21232;-81
2023/04/24 08:53:55;;;;;;;9.33;3.10;;;;;;;17.58;52.49;100071.94;1694159;83;21217;-81
2023/04/24 08:57:01;;;;;;;47.55;4.42;;;;;;;17.63;52.49;100063.80;1692511;83;21177;-82
2023/04/24 09:00:06;;;;;;;9.95;2.67;;;;;;;17.84;53.27;100062.56;1688779;83;21196;-81
2023/04/24 09:03:12;;;;;;;14.53;3.20;;;;;;;17.92;52.05;100068.85;1709438;82;21193;-81
2023/04/24 09:06:18;;;;;;;11.30;3.42;;;;;;;18.05;51.46;100057.09;1663283;86;21220;-81
2023/04/24 09:09:23;;;;;;;8.58;3.35;;;;;;;18.19;51.48;100053.63;1692839;83;21779;-81
2023/04/24 09:12:29;;;;;;;8.15;2.40;;;;;;;18.25;50.73;100058.22;1667547;86;21471;-81
2023/04/24 09:15:35;;;;;;;7.37;3.05;;;;;;;18.29;51.71;100048.92;1665644;84;21726;-81
2023/04/24 09:18:35;;;;;;;7.87;2.80;;;;;;;18.36;51.09;100053.84;1708597;83;21596;-88
2023/04/24 09:21:43;;;;;;;12.18;3.15;;;;;;;18.44;50.39;100053.50;1674109;84;21200;-88
2023/04/24 09:24:49;;;;;;;8.88;2.67;;;;;;;18.56;49.81;100047.48;1669049;85;21168;-82
2023/04/24 09:27:55;;;;;;;8.60;2.47;;;;;;;18.68;49.79;100050.31;1668674;84;21171;-82
2023/04/24 09:31:22;;;;;;;8.80;2.55;;;;;;;18.82;49.45;100049.57;1696424;83;21167;-82
2023/04/24 09:34:25;;;;;;;8.40;2.70;;;;;;;19.01;48.17;100049.83;1662561;84;21191;-82
2023/04/24 09:37:18;;;;;;;12.40;2.45;;;;;;;19.02;47.55;100043.19;1668873;84;21176;-89
2023/04/24 09:40:26;;;;;;;17.92;2.85;;;;;;;19.00;47.71;100048.66;1668493;85;21173;-88
2023/04/24 09:43:30;;;;;;;12.47;2.40;;;;;;;18.90;46.15;100047.86;1664123;85;21760;-89
2023/04/24 09:46:40;;;;;;;11.18;2.58;;;;;;;18.61;47.11;100048.16;1667717;84;21235;-88
2023/04/24 09:49:46;;;;;;;19.55;2.17;;;;;;;18.51;46.04;100045.95;1666764;84;21203;-88
2023/04/24 09:52:55;;;;;;;10.13;2.47;;;;;;;18.58;47.47;100041.18;1663052;85;21189;-88
2023/04/24 09:56:01;;;;;;;7.70;1.90;;;;;;;18.71;47.22;100031.00;1670188;85;21176;-88
2023/04/24 09:59:14;;;;;;;13.58;2.47;;;;;;;18.87;48.19;100037.27;1668295;84;21191;-89
2023/04/24 10:02:26;;;;;;;10.93;2.33;;;;;;;18.89;45.08;100034.55;1667221;84;21187;-88
2023/04/24 10:05:34;;;;;;;6.58;2.85;;;;;;;18.83;45.57;100037.44;1669501;84;21739;-88
2023/04/24 10:08:43;;;;;;;15.30;3.00;;;;;;;18.74;45.45;100026.38;1666263;84;21179;-89
2023/04/24 10:11:55;;;;;;;8.78;2.40;;;;;;;18.85;45.60;100028.33;1661770;84;21204;-88
2023/04/24 10:15:01;;;;;;;10.23;2.45;;;;;;;19.12;44.95;100027.36;1667462;84;21706;-89
2023/04/24 10:18:08;;;;;;;8.50;2.40;;;;;;;19.04;44.72;100016.61;1658323;84;21263;-89
2023/04/24 10:21:13;;;;;;;22.40;2.75;;;;;;;19.19;45.88;100024.45;1663889;84;21741;-88
2023/04/24 10:24:21;;;;;;;8.30;2.70;;;;;;;19.07;45.02;100018.38;1669916;84;21255;-88
2023/04/24 10:27:26;;;;;;;11.60;2.60;;;;;;;18.90;44.66;100018.76;1665545;84;21764;-89
2023/04/24 10:30:34;;;;;;;6.37;1.98;;;;;;;18.69;44.00;100020.16;1647209;84;21167;-89
2023/04/24 10:33:41;;;;;;;11.90;2.58;;;;;;;18.74;44.14;100013.37;1680230;84;21637;-82
2023/04/24 10:36:50;;;;;;;8.63;2.47;;;;;;;18.84;44.60;100014.17;1686679;83;21188;-82
2023/04/24 10:39:56;;;;;;;17.30;3.12;;;;;;;18.96;46.31;100012.80;1690709;83;21151;-82
2023/04/24 10:43:02;;;;;;;8.30;2.70;;;;;;;19.08;45.11;100007.58;1690055;83;21175;-89
2023/04/24 10:46:11;;;;;;;13.40;3.40;;;;;;;19.05;45.22;99998.34;1670879;84;21737;-89
2023/04/24 10:49:17;;;;;;;7.08;2.50;;;;;;;19.03;44.86;100000.53;1698477;84;21730;-88
2023/04/24 10:52:22;;;;;;;8.95;2.67;;;;;;;18.92;45.58;99999.98;1696679;83;21187;-89
2023/04/24 10:55:50;;;;;;;10.38;2.62;;;;;;;18.72;45.12;99993.89;1647285;84;21219;-88
2023/04/24 10:58:58;;;;;;;9.70;2.58;;;;;;;18.65;45.17;99988.44;1696541;83;21191;-89
2023/04/24 11:02:03;;;;;;;10.30;2.58;;;;;;;18.60;45.15;99998.84;1695607;83;21183;-89
2023/04/24 11:05:13;;;;;;;16.37;2.85;;;;;;;18.46;46.55;99986.28;1664478;84;21191;-89
2023/04/24 11:08:20;;;;;;;10.03;2.55;;;;;;;18.28;46.78;99976.09;1694943;83;21209;-82
2023/04/24 11:11:25;;;;;;;9.85;2.58;;;;;;;18.28;46.62;99973.88;1697404;83;21152;-82
2023/04/24 11:14:31;;;;;;;14.80;2.67;;;;;;;18.19;46.10;99975.28;1694449;83;21232;-82
2023/04/24 11:17:44;;;;;;;9.25;2.80;;;;;;;18.25;45.85;99972.95;1713616;82;21208;-82
2023/04/24 11:20:52;;;;;;;23.87;3.02;;;;;;;18.31;45.39;99970.64;1714143;82;21247;-82
2023/04/24 11:23:58;;;;;;;15.38;2.80;;;;;;;18.34;46.36;99968.77;1710877;83;21784;-82
2023/04/24 11:27:14;;;;;;;10.13;2.65;;;;;;;18.42;45.59;99968.98;1712602;82;21188;-90
2023/04/24 11:30:19;;;;;;;2.92;1.62;;;;;;;18.51;45.55;99970.34;1687710;83;21839;-89
2023/04/24 11:33:27;;;;;;;7.67;2.20;;;;;;;18.55;45.60;99967.41;1669691;83;21184;-89
2023/04/24 11:36:33;;;;;;;13.72;3.00;;;;;;;18.54;45.05;99963.80;1646242;86;21633;-88
2023/04/24 11:39:41;;;;;;;8.05;2.52;;;;;;;18.50;45.04;99962.58;1690514;84;21161;-89
2023/04/24 11:42:45;;;;;;;10.10;2.30;;;;;;;18.61;45.62;99968.67;1687796;84;21251;-88
2023/04/24 11:45:57;;;;;;;9.70;2.58;;;;;;;18.80;45.52;99962.54;1693407;83;21241;-89
2023/04/24 11:49:05;;;;;;;13.40;2.72;;;;;;;18.96;44.61;99955.98;1692648;83;21236;-88
2023/04/24 11:52:12;;;;;;;13.90;2.90;;;;;;;18.98;45.20;99960.77;1685429;84;21247;-88
2023/04/24 11:55:28;;;;;;;8.73;2.50;;;;;;;18.97;45.12;99957.16;1690182;84;21216;-88
2023/04/24 11:58:33;;;;;;;10.35;2.75;;;;;;;18.95;45.62;99960.69;1691220;84;21173;-88
2023/04/24 12:01:54;;;;;;;8.70;2.83;;;;;;;18.90;44.91;99955.02;1691513;83;21258;-88
2023/04/24 12:05:00;;;;;;;8.23;1.87;;;;;;;18.87;44.63;99954.98;1690941;84;21227;-88
2023/04/24 12:07:59;;;;;;;11.50;2.40;;;;;;;18.85;45.40;99956.28;1691684;82;21564;-88
2023/04/24 12:11:05;;;;;;;9.40;2.45;;;;;;;18.79;45.34;99954.48;1693157;83;21175;-88
2023/04/24 12:14:21;;;;;;;10.18;2.30;;;;;;;18.75;45.32;99947.17;1692909;83;21192;-88
2023/04/24 12:17:36;;;;;;;10.25;2.50;;;;;;;18.72;45.08;99946.26;1688403;84;21187;-88
2023/04/24 12:20:44;;;;;;;8.30;2.25;;;;;;;18.58;45.16;99942.86;1688162;84;21230;-87
2023/04/24 12:23:53;;;;;;;7.90;2.70;;;;;;;18.56;45.71;99935.85;1693058;84;21249;-88
2023/04/24 12:27:01;;;;;;;11.88;2.35;;;;;;;18.52;45.19;99936.02;1692032;83;21241;-88
2023/04/24 12:30:07;;;;;;;19.20;2.83;;;;;;;18.47;44.80;99935.34;1713930;83;21223;-88
2023/04/24 12:33:13;;;;;;;13.18;2.20;;;;;;;18.43;45.18;99934.13;1718344;82;21199;-89
2023/04/24 12:36:18;;;;;;;6.22;1.75;;;;;;;18.40;46.19;99937.39;1712267;82;21176;-89
2023/04/24 12:39:28;;;;;;;7.75;2.10;;;;;;;18.45;44.73;99934.75;1699706;83;21152;-88
2023/04/24 12:42:37;;;;;;;8.30;2.05;;;;;;;18.57;45.25;99935.60;1665797;84;21175;-88
2023/04/24 12:45:43;;;;;;;;;;;;;;;18.56;44.39;99934.47;1698586;83;21266;-89
2023/04/24 12:48:48;;;;;;;7.50;1.90;;;;;;;18.67;43.08;99921.72;1668554;84;20644;-89
2023/04/24 12:51:54;;;;;;;4.87;1.70;;;;;;;18.62;43.17;99923.27;1691172;83;21867;-89
2023/04/24 12:55:03;;;;;;;5.78;2.00;;;;;;;18.49;42.22;99919.87;1696777;83;21183;-87
2023/04/24 12:58:08;;;;;;;7.08;1.98;;;;;;;18.35;42.26;99919.27;1701915;83;21223;-88
2023/04/24 13:01:14;;;;;;;8.30;2.12;;;;;;;18.25;42.59;99914.27;1696880;83;21227;-89
2023/04/24 13:04:21;;;;;;;12.78;2.12;;;;;;;18.23;43.61;99908.69;1667937;84;21188;-88
2023/04/24 13:07:26;;;;;;;11.60;2.00;;;;;;;18.21;44.86;99905.29;1694764;83;21199;-81
2023/04/24 13:10:32;;;;;;;12.47;2.58;;;;;;;18.21;45.38;99904.78;1711315;82;21163;-82
2023/04/24 13:13:38;;;;;;;5.10;1.77;;;;;;;18.25;44.64;99897.66;1712753;83;21774;-87
2023/04/24 13:16:43;;;;;;;7.97;2.00;;;;;;;18.26;45.01;99905.45;1696755;84;21204;-88
2023/04/24 13:19:50;;;;;;;10.50;2.10;;;;;;;18.25;44.74;99902.36;1666078;86;21184;-84
2023/04/24 13:22:55;;;;;;;15.53;2.45;;;;;;;18.28;44.68;99901.35;1698433;84;21180;-87
2023/04/24 13:26:01;;;;;;;11.45;2.22;;;;;;;18.25;44.94;99898.20;1667846;84;21233;-82
2023/04/24 13:29:07;;;;;;;9.48;2.30;;;;;;;18.27;45.75;99892.75;1661769;86;21191;-81
2023/04/24 13:32:12;;;;;;;9.30;2.12;;;;;;;18.29;46.58;99885.58;1698906;84;21207;-87
2023/04/24 13:35:12;;;;;;;13.58;2.95;;;;;;;18.29;46.17;99891.95;1694218;84;21172;-82
2023/04/24 13:38:16;;;;;;;9.28;2.08;;;;;;;18.25;46.29;99886.59;1671904;85;21199;-82
2023/04/24 13:41:22;;;;;;;8.65;2.20;;;;;;;18.14;46.63;99879.11;1669810;86;21879;-88
2023/04/24 13:44:27;;;;;;;7.55;1.98;;;;;;;18.08;46.39;99875.37;1698566;84;21179;-88
2023/04/24 13:47:33;;;;;;;15.28;2.52;;;;;;;18.01;46.22;99871.00;1694189;84;21638;-87
2023/04/24 13:50:39;;;;;;;11.00;2.42;;;;;;;17.99;46.64;99869.86;1673627;85;21187;-81
2023/04/24 13:53:45;;;;;;;20.10;2.60;;;;;;;18.03;46.61;99866.93;1670670;85;21176;-82
2023/04/24 13:56:51;;;;;;;9.58;1.90;;;;;;;17.95;46.84;99866.42;1671500;84;21226;-82
2023/04/24 14:00:00;;;;;;;9.83;2.17;;;;;;;17.90;46.57;99865.73;1673490;85;21645;-88
2023/04/24 14:03:04;;;;;;;8.25;1.70;;;;;;;17.84;46.56;99861.16;1668746;86;21216;-89
2023/04/24 14:06:10;;;;;;;6.85;1.70;;;;;;;17.72;45.79;99859.67;1666092;86;21177;-81
2023/04/24 14:09:15;;;;;;;9.70;1.72;;;;;;;17.72;45.05;99862.98;1692492;84;21184;-82
2023/04/24 14:12:21;;;;;;;9.33;2.15;;;;;;;17.66;44.98;99851.48;1692568;84;21223;-87
2023/04/24 14:15:26;;;;;;;7.37;1.92;;;;;;;17.62;45.11;99857.47;1699837;84;21722;-88
2023/04/24 14:18:31;;;;;;;14.87;2.35;;;;;;;17.66;45.82;99857.02;1698444;84;21179;-82